createdAt,value
2019-01-08T00:01:14.394Z,96.92
2019-01-08T00:17:36.111Z,96.84
2019-01-08T00:22:48.008Z,96.89
2019-01-08T00:28:04.572Z,96.60
2019-01-08T00:38:19.436Z,96.79
2019-01-08T00:43:24.363Z,96.60
2019-01-08T00:59:48.149Z,97.21
2019-01-08T01:26:30.060Z,97.46
2019-01-08T01:31:45.611Z,97.39
2019-01-08T01:36:50.017Z,97.59
2019-01-08T01:41:54.281Z,97.69
2019-01-08T01:47:17.917Z,97.49
2019-01-08T01:52:41.607Z,97.50
2019-01-08T02:03:14.790Z,98.05
2019-01-08T02:08:19.050Z,98.13
2019-01-08T02:18:52.424Z,97.70
2019-01-08T02:29:25.188Z,97.54
2019-01-08T02:34:29.820Z,97.75
2019-01-08T02:39:34.088Z,96.38
2019-01-08T02:54:57.402Z,92.85
2019-01-08T03:10:59.784Z,93.34
2019-01-08T03:16:04.025Z,92.89
2019-01-08T03:31:27.644Z,91.27
2019-01-08T03:36:43.897Z,91.03
2019-01-08T03:41:48.471Z,90.56
2019-01-08T03:46:55.064Z,90.86
2019-01-08T03:51:59.391Z,91.31
2019-01-08T03:57:03.696Z,91.05
2019-01-08T04:02:07.965Z,91.29
2019-01-08T04:07:12.257Z,90.81
2019-01-08T04:12:16.481Z,90.61
2019-01-08T04:17:21.067Z,89.99
2019-01-08T04:22:25.606Z,89.50
2019-01-08T04:27:29.886Z,88.94
2019-01-08T04:32:34.105Z,89.33
2019-01-08T04:37:38.372Z,89.80
2019-01-08T04:42:42.681Z,89.46
2019-01-08T04:47:46.896Z,88.76
2019-01-08T04:52:51.110Z,88.59
2019-01-08T04:57:55.547Z,87.91
2019-01-08T05:02:59.807Z,88.04
2019-01-08T05:08:04.133Z,88.29
2019-01-08T05:13:08.379Z,88.17
2019-01-08T05:18:12.641Z,87.34
2019-01-08T05:23:16.936Z,87.42
2019-01-08T05:28:21.169Z,86.40
2019-01-08T05:33:25.501Z,87.49
2019-01-08T05:38:29.787Z,86.96
2019-01-08T05:43:34.033Z,86.26
2019-01-08T05:48:38.274Z,86.63
2019-01-08T05:53:42.630Z,86.88
2019-01-08T05:58:46.830Z,86.58
2019-01-08T06:03:51.144Z,85.73
2019-01-08T06:08:55.379Z,86.26
2019-01-08T06:13:59.748Z,86.17
2019-01-08T06:19:03.992Z,85.64
2019-01-08T06:24:08.214Z,85.96
2019-01-08T06:29:12.641Z,85.51
2019-01-08T06:34:16.886Z,85.54
2019-01-08T06:39:21.147Z,85.32
2019-01-08T06:44:25.453Z,85.06
2019-01-08T06:49:29.799Z,84.70
2019-01-08T06:54:34.375Z,84.49
2019-01-08T06:59:38.654Z,84.53
2019-01-08T07:04:42.887Z,84.33
2019-01-08T07:09:47.228Z,85.43
2019-01-08T07:14:51.656Z,85.05
2019-01-08T07:19:56.013Z,85.13
2019-01-08T07:25:00.545Z,84.89
2019-01-08T07:30:05.148Z,84.25
2019-01-08T07:35:09.506Z,84.72
2019-01-08T07:40:13.862Z,84.09
2019-01-08T07:45:18.263Z,83.37
2019-01-08T07:55:32.621Z,85.69
2019-01-08T08:00:55.916Z,86.51
2019-01-08T08:06:00.218Z,85.74
2019-01-08T08:16:13.998Z,86.06
2019-01-08T08:21:37.632Z,85.89
2019-01-08T08:26:41.957Z,86.27
2019-01-08T08:31:46.278Z,86.45
2019-01-08T08:37:11.874Z,87.05
2019-01-08T08:42:27.511Z,87.59
2019-01-08T08:47:32.146Z,87.47
2019-01-08T08:52:36.382Z,86.92
2019-01-08T08:57:40.634Z,87.08
2019-01-08T09:08:13.406Z,89.17
2019-01-08T09:13:17.698Z,89.07
2019-01-08T09:33:51.284Z,86.97
2019-01-08T09:38:55.579Z,87.34
2019-01-08T09:43:59.956Z,86.81
2019-01-08T09:49:04.510Z,85.78
2019-01-08T09:54:08.895Z,85.30
2019-01-08T09:59:13.119Z,84.86
2019-01-08T10:04:17.600Z,85.40
2019-01-08T10:09:21.896Z,87.03
2019-01-08T10:14:26.442Z,88.19
2019-01-08T10:19:30.762Z,88.29
2019-01-08T10:24:35.105Z,88.37
2019-01-08T10:29:39.337Z,88.33
2019-01-08T10:34:43.651Z,89.20
2019-01-08T10:39:47.872Z,89.88
2019-01-08T10:44:52.232Z,90.08
2019-01-08T10:49:56.556Z,90.12
2019-01-08T10:55:00.783Z,90.73
2019-01-08T11:00:05.521Z,91.83
2019-01-08T11:05:09.760Z,91.52
2019-01-08T11:10:14.382Z,91.82
2019-01-08T11:15:18.628Z,91.71
2019-01-08T11:20:23.053Z,90.78
2019-01-08T11:25:28.314Z,91.55
2019-01-08T11:30:32.528Z,90.83
2019-01-08T11:35:42.155Z,91.08
2019-01-08T11:40:42.763Z,90.97
2019-01-08T11:45:47.147Z,90.07
2019-01-08T11:50:51.379Z,90.40
2019-01-08T11:55:55.891Z,90.06
2019-01-08T12:00:59.953Z,89.64
2019-01-08T12:06:04.263Z,90.65
2019-01-08T12:11:08.559Z,89.92
2019-01-08T12:16:12.886Z,90.45
2019-01-08T12:21:17.508Z,89.93
2019-01-08T12:26:22.124Z,90.16
2019-01-08T12:31:26.406Z,89.74
2019-01-08T12:36:30.750Z,90.06
2019-01-08T12:41:35.520Z,89.28
2019-01-08T12:46:40.038Z,88.55
2019-01-08T12:51:44.302Z,89.07
2019-01-08T12:56:48.628Z,89.04
2019-01-08T13:01:53.008Z,89.56
2019-01-08T13:06:57.336Z,89.50
2019-01-08T13:12:01.556Z,90.81
2019-01-08T13:17:11.454Z,91.05
2019-01-08T13:22:11.797Z,92.22
2019-01-08T13:27:16.208Z,91.07
2019-01-08T13:32:23.328Z,91.39
2019-01-08T13:37:26.863Z,91.95
2019-01-08T13:42:31.334Z,92.78
2019-01-08T13:47:35.752Z,93.06
2019-01-08T13:52:40.449Z,91.32
2019-01-08T13:57:44.759Z,91.87
2019-01-08T14:02:49.019Z,91.61
2019-01-08T14:07:53.348Z,92.21
2019-01-08T14:12:57.680Z,92.00
2019-01-08T14:18:01.948Z,91.95
2019-01-08T14:23:06.752Z,92.07
2019-01-08T14:28:11.285Z,91.62
2019-01-08T14:33:15.889Z,92.22
2019-01-08T14:38:20.169Z,92.24
2019-01-08T14:43:24.493Z,91.66
2019-01-08T14:48:28.865Z,92.69
2019-01-08T14:53:33.189Z,92.62
2019-01-08T14:58:37.508Z,90.98
2019-01-08T15:03:41.856Z,90.87
2019-01-08T15:08:46.186Z,90.36
2019-01-08T15:13:50.581Z,90.57
2019-01-08T15:18:54.996Z,90.97
2019-01-08T15:23:59.675Z,91.43
2019-01-08T15:29:03.907Z,91.34
2019-01-08T15:34:08.160Z,90.37
2019-01-08T15:39:12.510Z,89.75
2019-01-08T15:44:17.071Z,89.90
2019-01-08T15:49:21.415Z,89.31
2019-01-08T15:54:25.637Z,88.61
2019-01-08T15:59:29.911Z,89.25
2019-01-08T16:04:34.220Z,89.81
2019-01-08T16:09:38.823Z,90.23
2019-01-08T16:14:43.510Z,89.11
2019-01-08T16:19:48.035Z,87.84
2019-01-08T16:24:52.476Z,88.21
2019-01-08T16:29:56.749Z,88.08
2019-01-08T16:35:01.090Z,87.86
2019-01-08T16:40:05.959Z,87.48
2019-01-08T16:45:10.818Z,87.78
2019-01-08T16:50:15.941Z,87.35
2019-01-08T16:55:20.354Z,87.76
2019-01-08T17:00:24.685Z,87.79
2019-01-08T17:05:29.010Z,87.04
2019-01-08T17:10:33.317Z,87.26
2019-01-08T17:15:37.837Z,87.30
2019-01-08T17:20:42.229Z,87.81
2019-01-08T17:25:48.025Z,88.01
2019-01-08T17:30:52.537Z,87.07
2019-01-08T17:35:56.844Z,87.67
2019-01-08T17:41:01.102Z,87.47
2019-01-08T17:46:05.416Z,87.97
2019-01-08T17:51:09.721Z,87.93
2019-01-08T17:56:14.145Z,87.00
2019-01-08T18:01:24.701Z,86.93
2019-01-08T18:06:28.944Z,87.58
2019-01-08T18:11:33.241Z,86.90
2019-01-08T18:16:37.476Z,86.55
2019-01-08T18:21:41.903Z,86.95
2019-01-08T18:26:46.216Z,86.47
2019-01-08T18:31:50.904Z,86.38
2019-01-08T18:36:55.154Z,86.65
2019-01-08T18:41:59.792Z,85.00
2019-01-08T18:47:04.219Z,85.42
2019-01-08T18:52:08.592Z,84.64
2019-01-08T18:57:12.809Z,84.71
2019-01-08T19:02:17.452Z,86.08
2019-01-08T19:07:25.496Z,90.46
2019-01-08T19:12:29.855Z,91.22
2019-01-08T19:17:34.458Z,90.51
2019-01-08T19:22:38.829Z,90.41
2019-01-08T19:27:44.003Z,91.25
2019-01-08T19:32:48.220Z,92.17
2019-01-08T19:37:52.547Z,91.98
2019-01-08T19:42:57.023Z,92.21
2019-01-08T19:48:01.278Z,92.36
2019-01-08T19:53:05.838Z,92.50
2019-01-08T19:58:10.088Z,92.81
2019-01-08T20:03:14.402Z,92.20
2019-01-08T20:08:18.650Z,91.62
2019-01-08T20:13:22.911Z,91.66
2019-01-08T20:18:27.297Z,91.02
2019-01-08T20:23:34.753Z,90.34
2019-01-08T20:28:39.061Z,89.14
2019-01-08T20:33:43.655Z,89.28
2019-01-08T20:38:48.036Z,88.46
2019-01-08T20:43:52.453Z,89.39
2019-01-08T20:48:56.822Z,89.47
2019-01-08T20:54:01.275Z,89.36
2019-01-08T20:59:05.856Z,89.04
2019-01-08T21:04:10.189Z,88.85
2019-01-08T21:09:14.460Z,89.30
2019-01-08T21:14:19.061Z,88.96
2019-01-08T21:19:23.310Z,88.30
2019-01-08T21:24:28.873Z,88.23
2019-01-08T21:29:33.488Z,89.78
2019-01-08T21:34:44.263Z,90.45
2019-01-08T21:39:44.476Z,91.42
2019-01-08T21:44:48.821Z,91.81
2019-01-08T21:49:53.413Z,92.27
2019-01-08T21:54:57.847Z,92.13
2019-01-08T22:00:02.179Z,91.85
2019-01-08T22:05:06.591Z,91.53
2019-01-08T22:10:10.967Z,91.26
2019-01-08T22:15:17.852Z,91.98
2019-01-08T22:20:22.809Z,92.43
2019-01-08T22:25:27.492Z,92.69
2019-01-08T22:30:31.780Z,93.07
2019-01-08T22:41:24.857Z,93.62
2019-01-08T22:46:48.305Z,93.31
2019-01-08T22:57:13.487Z,92.15
2019-01-08T23:02:17.796Z,92.27
2019-01-08T23:13:09.758Z,92.36
2019-01-08T23:18:33.088Z,93.25
2019-01-08T23:23:56.346Z,93.26
2019-01-08T23:34:29.732Z,92.95
2019-01-08T23:39:33.957Z,93.05
2019-01-08T23:44:38.205Z,93.42
2019-01-08T23:55:31.133Z,93.12
